createdAt,value
2018-04-23T00:02:34.902Z,19.24
2018-04-23T00:17:34.543Z,18.96
2018-04-23T00:32:35.932Z,18.96
2018-04-23T00:47:35.930Z,18.91
2018-04-23T01:17:34.856Z,18.48
2018-04-23T01:32:36.139Z,18.43
2018-04-23T01:47:34.125Z,18.48
2018-04-23T02:02:35.076Z,18.31
2018-04-23T02:17:38.074Z,18.26
2018-04-23T02:32:34.419Z,18.03
2018-04-23T02:47:34.460Z,18.05
2018-04-23T03:02:34.158Z,17.91
2018-04-23T03:17:34.318Z,16.92
2018-04-23T03:32:34.679Z,16.28
2018-04-23T03:47:34.713Z,16.23
2018-04-23T04:02:34.599Z,18.94
2018-04-23T04:17:52.877Z,20.39
2018-04-23T04:32:36.929Z,20.97
2018-04-23T04:47:35.760Z,21.20
2018-04-23T05:02:34.448Z,21.89
2018-04-23T05:17:34.300Z,22.69
2018-04-23T05:32:36.159Z,23.63
2018-04-23T05:47:35.171Z,24.33
2018-04-23T06:02:35.110Z,25.14
2018-04-23T06:17:34.572Z,26.05
2018-04-23T06:32:34.488Z,27.30
2018-04-23T06:47:35.404Z,28.73
2018-04-23T07:02:35.534Z,30.13
2018-04-23T07:17:35.049Z,31.42
2018-04-23T07:32:36.736Z,32.52
2018-04-23T07:47:34.889Z,33.41
2018-04-23T08:02:36.781Z,33.73
2018-04-23T08:17:34.997Z,34.18
2018-04-23T08:32:34.937Z,34.50
2018-04-23T08:47:34.893Z,34.83
2018-04-23T09:02:34.397Z,35.14
2018-04-23T09:17:35.317Z,35.57
2018-04-23T09:32:37.241Z,35.81
2018-04-23T09:47:35.178Z,35.61
2018-04-23T10:02:37.226Z,35.60
2018-04-23T10:17:34.559Z,35.30
2018-04-23T10:32:34.486Z,35.15
2018-04-23T10:47:34.439Z,34.17
2018-04-23T11:02:35.422Z,34.27
2018-04-23T11:17:34.970Z,34.16
2018-04-23T11:32:35.714Z,33.93
2018-04-23T11:47:35.058Z,33.19
2018-04-23T12:02:37.786Z,32.80
2018-04-23T12:17:35.057Z,32.33
2018-04-23T12:32:35.019Z,31.78
2018-04-23T12:47:35.025Z,31.02
2018-04-23T13:02:34.944Z,30.38
2018-04-23T13:17:35.109Z,29.86
2018-04-23T13:32:35.277Z,29.29
2018-04-23T13:47:35.273Z,28.84
2018-04-23T14:02:35.563Z,28.41
2018-04-23T14:17:36.573Z,27.97
2018-04-23T14:32:34.330Z,27.60
2018-04-23T14:47:36.286Z,27.31
2018-04-23T15:02:34.442Z,27.10
2018-04-23T15:17:34.689Z,26.88
2018-04-23T15:32:34.583Z,26.67
2018-04-23T15:47:34.550Z,26.42
2018-04-23T16:02:35.323Z,26.12
2018-04-23T16:17:35.702Z,25.82
2018-04-23T16:32:34.896Z,25.44
2018-04-23T16:47:34.901Z,25.49
2018-04-23T17:02:35.087Z,25.57
2018-04-23T17:17:34.167Z,24.94
2018-04-23T17:32:37.160Z,24.46
2018-04-23T17:47:35.388Z,24.05
2018-04-23T18:02:35.105Z,23.51
2018-04-23T18:17:34.728Z,23.05
2018-04-23T18:32:39.349Z,22.65
2018-04-23T18:47:34.650Z,22.31
2018-04-23T19:02:36.639Z,22.06
2018-04-23T19:17:36.954Z,21.76
2018-04-23T19:32:34.759Z,21.53
2018-04-23T19:47:34.959Z,21.49
2018-04-23T20:02:34.432Z,21.47
2018-04-23T20:17:34.622Z,21.43
2018-04-23T20:32:35.031Z,21.28
2018-04-23T20:47:35.909Z,21.23
2018-04-23T21:02:35.157Z,21.07
2018-04-23T21:17:36.304Z,20.92
2018-04-23T21:32:36.238Z,20.80
2018-04-23T21:47:34.249Z,20.66
2018-04-23T22:02:34.482Z,20.55
2018-04-23T22:17:34.770Z,20.46
2018-04-23T22:32:34.721Z,20.34
2018-04-23T22:47:34.670Z,20.18
2018-04-23T23:02:34.440Z,20.04
2018-04-23T23:17:35.006Z,19.82
2018-04-23T23:32:37.013Z,19.79
2018-04-23T23:47:35.004Z,19.67
